Wetterdaten: aktuell Freitag, 04.01.2019 18:45
Datum Zeit Temp. A. Feuchte A. Regen Taupunkt
04.01.2019 18:45 22,8 C 99 % 0,0 l/m 22,6 C
04.01.2019 18:00 22,8 C 99 % 0,0 l/m 22,6 C
04.01.2019 17:00 22,8 C 99 % 0,0 l/m 22,6 C
04.01.2019 16:14 22,8 C 99 % 0,0 l/m 22,6 C
04.01.2019 15:30 22,8 C 99 % 0,0 l/m 22,6 C
04.01.2019 14:45 22,8 C 99 % 0,0 l/m 22,6 C
04.01.2019 14:00 22,8 C 99 % 0,0 l/m 22,6 C
04.01.2019 13:15 22,8 C 99 % 0,0 l/m 22,6 C
04.01.2019 12:30 22,8 C 99 % 0,0 l/m 22,6 C
04.01.2019 11:45 2,3 C 97 % 0,0 l/m 1,9 C
04.01.2019 11:00 1,4 C 97 % 0,0 l/m 1,0 C
04.01.2019 10:15 1,0 C 96 % 0,0 l/m 0,4 C
04.01.2019 09:30 0,9 C 96 % 0,0 l/m 0,3 C
04.01.2019 08:45 0,7 C 96 % 0,0 l/m 0,1 C
04.01.2019 08:00 0,5 C 96 % 0,0 l/m -0,1 C
04.01.2019 07:15 0,1 C 96 % 0,0 l/m -0,5 C
04.01.2019 06:30 0,4 C 96 % 0,0 l/m -0,2 C
04.01.2019 05:45 0,6 C 96 % 0,0 l/m 0,0 C
04.01.2019 05:00 0,3 C 96 % 0,0 l/m -0,3 C
04.01.2019 04:15 0,3 C 96 % 0,0 l/m -0,3 C
04.01.2019 03:30 0,0 C 96 % 0,0 l/m -0,6 C
04.01.2019 02:45 0,1 C 96 % 0,0 l/m -0,5 C
04.01.2019 02:00 -0,2 C 95 % 0,0 l/m -0,9 C
04.01.2019 01:15 0,2 C 95 % 0,0 l/m -0,5 C
04.01.2019 00:30 0,2 C 95 % 0,0 l/m -0,5 C
04.01.2019 00:00 0,6 C 95 % 0,0 l/m -0,1 C
_ Min-Zeit 02:15 02:00 - 02:00
Minimum _ -0,2 C 95 % - -0,9 C
_ Max-Zeit 18:45 18:45 18:45 18:45
Maximum _ 22,8 C 99 % 0,0 l/m 22,6 C
Durchschnitt _ 8,2 C 97 % #0,0 l/m 7,8 C